This is the latest recevied weather packets stored in our database for station/object WY7EM. If no packets are shown the sender has not sent any weather packets the latest 1 day(s).
| Time | Temp. | Humidity | Pressure | Rain* | Wind** | Luminosity | Snow |
|---|---|---|---|---|---|---|---|
| 1778030176 | 21.11° C | 18% | 1006 hPa | 0 mm | 1.34 m/s, 197° | 44 W/m² | - |
| 1778029872 | 20.56° C | 18% | 1006.1 hPa | 0 mm | 4.47 m/s, 254° | 61 W/m² | - |
| 1778029571 | 21.11° C | 18% | 1006.1 hPa | 0 mm | 2.68 m/s, 242° | 83 W/m² | - |
| 1778029268 | 21.11° C | 18% | 1005.7 hPa | 0 mm | 4.92 m/s, 294° | 94 W/m² | - |
| 1778028965 | 21.67° C | 18% | 1006 hPa | 0 mm | 0.89 m/s, 45° | 114 W/m² | - |
| 1778028661 | 21.11° C | 18% | 1005.8 hPa | 0 mm | 2.68 m/s, 260° | 132 W/m² | - |
| 1778028358 | 21.67° C | 18% | 1005.8 hPa | 0 mm | 3.58 m/s, 221° | 147 W/m² | - |
| 1778028054 | 21.11° C | 18% | 1005.7 hPa | 0 mm | 4.02 m/s, 220° | 166 W/m² | - |
| 1778027751 | 21.67° C | 19% | 1005.7 hPa | 0 mm | 3.58 m/s, 242° | 188 W/m² | - |
| 1778027447 | 21.67° C | 19% | 1005.8 hPa | 0 mm | 1.79 m/s, 296° | 214 W/m² | - |
| 1778027143 | 21.67° C | 19% | 1005.6 hPa | 0 mm | 1.79 m/s, 317° | 244 W/m² | - |
| 1778026839 | 21.67° C | 19% | 1005.7 hPa | 0 mm | 4.92 m/s, 209° | 270 W/m² | - |
| 1778026536 | 21.67° C | 19% | 1005.7 hPa | 0 mm | 2.24 m/s, 238° | 299 W/m² | - |
| 1778026233 | 21.11° C | 20% | 1005.6 hPa | 0 mm | 1.34 m/s, 309° | 330 W/m² | - |
| 1778025930 | 21.67° C | 20% | 1005.6 hPa | 0 mm | 1.79 m/s, 324° | 349 W/m² | - |
| 1778025628 | 21.67° C | 20% | 1005.8 hPa | 0 mm | 1.79 m/s, 318° | 359 W/m² | - |
| 1778025326 | 21.67° C | 19% | 1006 hPa | 0 mm | 5.81 m/s, 274° | 369 W/m² | - |
| 1778025022 | 22.22° C | 20% | 1005.6 hPa | 0 mm | 3.58 m/s, 272° | 383 W/m² | - |
| 1778024719 | 22.22° C | 20% | 1005.6 hPa | 0 mm | 2.68 m/s, 242° | 405 W/m² | - |
| 1778024416 | 21.67° C | 20% | 1005.5 hPa | 0 mm | 2.68 m/s, 275° | 420 W/m² | - |
| 1778024114 | 22.22° C | 20% | 1005.7 hPa | 0 mm | 3.13 m/s, 247° | 451 W/m² | - |
| 1778023811 | 22.22° C | 20% | 1005.7 hPa | 0 mm | 2.24 m/s, 252° | 458 W/m² | - |
| 1778023509 | 22.78° C | 20% | 1005.7 hPa | 0 mm | 2.24 m/s, 292° | 465 W/m² | - |
| 1778023206 | 22.22° C | 20% | 1006 hPa | 0 mm | 3.13 m/s, 248° | 266 W/m² | - |
| 1778022903 | 21.67° C | 20% | 1005.7 hPa | 0 mm | 1.79 m/s, 295° | 496 W/m² | - |
* Rain latest hour (hover to see other rain measurements)
** Current wind speed in m/s (hover to see current wind gust speed)